sensor_id;sensor_type;location;lat;lon;timestamp;P1;durP1;ratioP1;P2;durP2;ratioP2
16029;SDS011;34770;49.272;11.070;2023-08-12T00:00:31;8.65;;;3.95;;
16029;SDS011;34770;49.272;11.070;2023-08-12T00:02:57;5.85;;;3.80;;
16029;SDS011;34770;49.272;11.070;2023-08-12T00:05:23;4.38;;;3.72;;
16029;SDS011;34770;49.272;11.070;2023-08-12T00:07:48;8.32;;;3.90;;
16029;SDS011;34770;49.272;11.070;2023-08-12T00:10:14;5.50;;;4.53;;
16029;SDS011;34770;49.272;11.070;2023-08-12T00:12:40;6.05;;;4.10;;
16029;SDS011;34770;49.272;11.070;2023-08-12T00:15:06;6.15;;;4.03;;
16029;SDS011;34770;49.272;11.070;2023-08-12T00:17:33;7.10;;;4.00;;
16029;SDS011;34770;49.272;11.070;2023-08-12T00:19:59;8.45;;;4.82;;
16029;SDS011;34770;49.272;11.070;2023-08-12T00:22:25;6.13;;;4.13;;
16029;SDS011;34770;49.272;11.070;2023-08-12T00:24:50;7.07;;;4.38;;
16029;SDS011;34770;49.272;11.070;2023-08-12T00:27:17;5.57;;;5.05;;
16029;SDS011;34770;49.272;11.070;2023-08-12T00:29:42;6.45;;;4.32;;
16029;SDS011;34770;49.272;11.070;2023-08-12T00:32:08;5.63;;;4.40;;
16029;SDS011;34770;49.272;11.070;2023-08-12T00:34:33;6.97;;;4.15;;
16029;SDS011;34770;49.272;11.070;2023-08-12T00:36:59;4.30;;;3.90;;
16029;SDS011;34770;49.272;11.070;2023-08-12T00:39:24;4.65;;;4.20;;
16029;SDS011;34770;49.272;11.070;2023-08-12T00:41:50;4.82;;;4.32;;
16029;SDS011;34770;49.272;11.070;2023-08-12T00:44:15;4.05;;;3.65;;
16029;SDS011;34770;49.272;11.070;2023-08-12T00:46:40;4.40;;;3.97;;
16029;SDS011;34770;49.272;11.070;2023-08-12T00:49:07;6.60;;;4.53;;
16029;SDS011;34770;49.272;11.070;2023-08-12T00:51:33;7.18;;;4.53;;
16029;SDS011;34770;49.272;11.070;2023-08-12T00:54:00;5.47;;;4.40;;
16029;SDS011;34770;49.272;11.070;2023-08-12T00:56:29;12.75;;;4.72;;
16029;SDS011;34770;49.272;11.070;2023-08-12T00:58:56;5.05;;;4.60;;
16029;SDS011;34770;49.272;11.070;2023-08-12T01:01:23;8.80;;;4.63;;
16029;SDS011;34770;49.272;11.070;2023-08-12T01:03:48;8.43;;;4.60;;
16029;SDS011;34770;49.272;11.070;2023-08-12T01:06:13;4.78;;;4.28;;
16029;SDS011;34770;49.272;11.070;2023-08-12T01:08:39;5.93;;;3.63;;
16029;SDS011;34770;49.272;11.070;2023-08-12T01:11:11;5.72;;;3.80;;
16029;SDS011;34770;49.272;11.070;2023-08-12T01:13:46;3.97;;;3.67;;
16029;SDS011;34770;49.272;11.070;2023-08-12T01:16:21;5.63;;;3.65;;
16029;SDS011;34770;49.272;11.070;2023-08-12T01:18:47;4.43;;;3.70;;
16029;SDS011;34770;49.272;11.070;2023-08-12T01:21:16;5.40;;;4.32;;
16029;SDS011;34770;49.272;11.070;2023-08-12T01:23:42;4.78;;;3.70;;
16029;SDS011;34770;49.272;11.070;2023-08-12T01:26:08;5.35;;;4.10;;
16029;SDS011;34770;49.272;11.070;2023-08-12T01:28:33;4.13;;;3.80;;
16029;SDS011;34770;49.272;11.070;2023-08-12T01:31:04;4.28;;;3.90;;
16029;SDS011;34770;49.272;11.070;2023-08-12T01:36:19;3.88;;;3.58;;
16029;SDS011;34770;49.272;11.070;2023-08-12T01:38:47;5.55;;;3.75;;
16029;SDS011;34770;49.272;11.070;2023-08-12T01:41:16;4.40;;;3.60;;
16029;SDS011;34770;49.272;11.070;2023-08-12T01:43:43;4.25;;;3.42;;
16029;SDS011;34770;49.272;11.070;2023-08-12T01:46:09;6.25;;;3.97;;
16029;SDS011;34770;49.272;11.070;2023-08-12T01:48:35;9.48;;;4.28;;
16029;SDS011;34770;49.272;11.070;2023-08-12T01:51:00;6.25;;;3.55;;
16029;SDS011;34770;49.272;11.070;2023-08-12T01:53:26;4.40;;;3.95;;
16029;SDS011;34770;49.272;11.070;2023-08-12T01:55:51;4.35;;;3.85;;
16029;SDS011;34770;49.272;11.070;2023-08-12T01:58:17;5.28;;;3.95;;
16029;SDS011;34770;49.272;11.070;2023-08-12T02:00:43;4.75;;;4.22;;
16029;SDS011;34770;49.272;11.070;2023-08-12T02:03:08;5.85;;;4.40;;
16029;SDS011;34770;49.272;11.070;2023-08-12T02:05:33;4.40;;;3.70;;
16029;SDS011;34770;49.272;11.070;2023-08-12T02:07:59;4.38;;;3.97;;
16029;SDS011;34770;49.272;11.070;2023-08-12T02:10:24;8.85;;;4.00;;
16029;SDS011;34770;49.272;11.070;2023-08-12T02:12:49;6.22;;;4.00;;
16029;SDS011;34770;49.272;11.070;2023-08-12T02:15:15;6.10;;;3.88;;
16029;SDS011;34770;49.272;11.070;2023-08-12T02:17:40;6.40;;;3.75;;
16029;SDS011;34770;49.272;11.070;2023-08-12T02:20:06;4.10;;;3.70;;
16029;SDS011;34770;49.272;11.070;2023-08-12T02:22:32;4.45;;;3.92;;
16029;SDS011;34770;49.272;11.070;2023-08-12T02:24:57;5.90;;;3.92;;
16029;SDS011;34770;49.272;11.070;2023-08-12T02:27:23;6.15;;;4.45;;
16029;SDS011;34770;49.272;11.070;2023-08-12T02:29:48;4.43;;;4.03;;
16029;SDS011;34770;49.272;11.070;2023-08-12T02:32:13;4.53;;;4.13;;
16029;SDS011;34770;49.272;11.070;2023-08-12T02:34:39;5.38;;;4.00;;
16029;SDS011;34770;49.272;11.070;2023-08-12T02:37:04;5.90;;;3.70;;
16029;SDS011;34770;49.272;11.070;2023-08-12T02:39:29;10.15;;;3.63;;
16029;SDS011;34770;49.272;11.070;2023-08-12T02:41:55;6.32;;;4.15;;
16029;SDS011;34770;49.272;11.070;2023-08-12T02:44:20;4.50;;;3.83;;
16029;SDS011;34770;49.272;11.070;2023-08-12T02:46:45;8.70;;;4.07;;
16029;SDS011;34770;49.272;11.070;2023-08-12T02:49:11;5.25;;;4.05;;
16029;SDS011;34770;49.272;11.070;2023-08-12T02:51:36;5.95;;;4.00;;
16029;SDS011;34770;49.272;11.070;2023-08-12T02:54:01;5.28;;;3.85;;
16029;SDS011;34770;49.272;11.070;2023-08-12T02:56:27;4.28;;;3.88;;
16029;SDS011;34770;49.272;11.070;2023-08-12T02:58:52;8.82;;;4.30;;
16029;SDS011;34770;49.272;11.070;2023-08-12T03:01:18;4.55;;;4.15;;
16029;SDS011;34770;49.272;11.070;2023-08-12T03:03:44;4.43;;;3.78;;
16029;SDS011;34770;49.272;11.070;2023-08-12T03:06:09;4.88;;;4.18;;
16029;SDS011;34770;49.272;11.070;2023-08-12T03:08:35;4.00;;;3.65;;
16029;SDS011;34770;49.272;11.070;2023-08-12T03:11:01;5.10;;;4.60;;
16029;SDS011;34770;49.272;11.070;2023-08-12T03:13:27;5.03;;;4.30;;
16029;SDS011;34770;49.272;11.070;2023-08-12T03:15:53;4.25;;;3.85;;
16029;SDS011;34770;49.272;11.070;2023-08-12T03:18:18;9.38;;;4.25;;
16029;SDS011;34770;49.272;11.070;2023-08-12T03:20:44;5.25;;;3.90;;
16029;SDS011;34770;49.272;11.070;2023-08-12T03:23:09;6.47;;;4.30;;
16029;SDS011;34770;49.272;11.070;2023-08-12T03:25:34;4.43;;;4.03;;
16029;SDS011;34770;49.272;11.070;2023-08-12T03:28:00;4.70;;;3.90;;
16029;SDS011;34770;49.272;11.070;2023-08-12T03:30:25;4.18;;;3.67;;
16029;SDS011;34770;49.272;11.070;2023-08-12T03:32:51;6.47;;;4.07;;
16029;SDS011;34770;49.272;11.070;2023-08-12T03:35:17;4.80;;;4.35;;
16029;SDS011;34770;49.272;11.070;2023-08-12T03:37:42;5.75;;;4.47;;
16029;SDS011;34770;49.272;11.070;2023-08-12T03:40:08;5.18;;;4.65;;
16029;SDS011;34770;49.272;11.070;2023-08-12T03:42:34;4.50;;;4.03;;
16029;SDS011;34770;49.272;11.070;2023-08-12T03:44:59;6.03;;;4.55;;
16029;SDS011;34770;49.272;11.070;2023-08-12T03:47:24;4.40;;;3.80;;
16029;SDS011;34770;49.272;11.070;2023-08-12T03:49:50;4.65;;;4.13;;
16029;SDS011;34770;49.272;11.070;2023-08-12T03:52:15;5.80;;;3.72;;
16029;SDS011;34770;49.272;11.070;2023-08-12T03:54:40;6.32;;;3.60;;
16029;SDS011;34770;49.272;11.070;2023-08-12T03:57:06;4.25;;;3.75;;
16029;SDS011;34770;49.272;11.070;2023-08-12T03:59:31;4.90;;;4.40;;
16029;SDS011;34770;49.272;11.070;2023-08-12T04:01:57;4.05;;;3.60;;
16029;SDS011;34770;49.272;11.070;2023-08-12T04:04:22;5.30;;;3.72;;
16029;SDS011;34770;49.272;11.070;2023-08-12T04:06:48;5.15;;;4.13;;
16029;SDS011;34770;49.272;11.070;2023-08-12T04:09:16;4.43;;;4.03;;
16029;SDS011;34770;49.272;11.070;2023-08-12T04:11:44;4.60;;;4.20;;
16029;SDS011;34770;49.272;11.070;2023-08-12T04:14:11;4.70;;;4.30;;
16029;SDS011;34770;49.272;11.070;2023-08-12T04:16:37;4.82;;;4.25;;
16029;SDS011;34770;49.272;11.070;2023-08-12T04:19:03;4.38;;;4.00;;
16029;SDS011;34770;49.272;11.070;2023-08-12T04:21:29;12.23;;;4.18;;
16029;SDS011;34770;49.272;11.070;2023-08-12T04:23:54;6.88;;;4.38;;
16029;SDS011;34770;49.272;11.070;2023-08-12T04:26:19;4.63;;;3.92;;
16029;SDS011;34770;49.272;11.070;2023-08-12T04:28:45;5.90;;;4.72;;
16029;SDS011;34770;49.272;11.070;2023-08-12T04:31:10;6.50;;;4.30;;
16029;SDS011;34770;49.272;11.070;2023-08-12T04:33:39;4.45;;;4.05;;
16029;SDS011;34770;49.272;11.070;2023-08-12T04:36:05;6.38;;;4.20;;
16029;SDS011;34770;49.272;11.070;2023-08-12T04:38:30;4.80;;;3.80;;
16029;SDS011;34770;49.272;11.070;2023-08-12T04:40:56;3.55;;;3.25;;
16029;SDS011;34770;49.272;11.070;2023-08-12T04:43:22;4.78;;;3.55;;
16029;SDS011;34770;49.272;11.070;2023-08-12T04:45:47;4.45;;;3.97;;
16029;SDS011;34770;49.272;11.070;2023-08-12T04:48:13;3.95;;;3.30;;
16029;SDS011;34770;49.272;11.070;2023-08-12T04:50:39;5.07;;;3.70;;
16029;SDS011;34770;49.272;11.070;2023-08-12T04:53:05;5.75;;;4.72;;
16029;SDS011;34770;49.272;11.070;2023-08-12T04:55:30;6.15;;;4.75;;
16029;SDS011;34770;49.272;11.070;2023-08-12T04:57:56;7.82;;;4.43;;
16029;SDS011;34770;49.272;11.070;2023-08-12T05:00:22;4.82;;;4.03;;
16029;SDS011;34770;49.272;11.070;2023-08-12T05:02:47;7.80;;;4.07;;
16029;SDS011;34770;49.272;11.070;2023-08-12T05:05:13;4.20;;;3.90;;
16029;SDS011;34770;49.272;11.070;2023-08-12T05:07:39;4.75;;;3.80;;
16029;SDS011;34770;49.272;11.070;2023-08-12T05:10:04;4.60;;;4.03;;
16029;SDS011;34770;49.272;11.070;2023-08-12T05:12:30;10.25;;;5.38;;
16029;SDS011;34770;49.272;11.070;2023-08-12T05:14:55;6.80;;;4.55;;
16029;SDS011;34770;49.272;11.070;2023-08-12T05:17:21;6.20;;;4.70;;
16029;SDS011;34770;49.272;11.070;2023-08-12T05:19:46;5.88;;;4.88;;
16029;SDS011;34770;49.272;11.070;2023-08-12T05:22:12;7.18;;;4.68;;
16029;SDS011;34770;49.272;11.070;2023-08-12T05:24:37;4.97;;;4.47;;
16029;SDS011;34770;49.272;11.070;2023-08-12T05:27:02;5.28;;;4.15;;
16029;SDS011;34770;49.272;11.070;2023-08-12T05:29:29;5.28;;;4.22;;
16029;SDS011;34770;49.272;11.070;2023-08-12T05:31:54;4.80;;;4.20;;
16029;SDS011;34770;49.272;11.070;2023-08-12T05:34:20;4.35;;;3.92;;
16029;SDS011;34770;49.272;11.070;2023-08-12T05:36:45;6.38;;;4.18;;
16029;SDS011;34770;49.272;11.070;2023-08-12T05:39:11;3.95;;;3.65;;
16029;SDS011;34770;49.272;11.070;2023-08-12T05:41:36;4.90;;;4.00;;
16029;SDS011;34770;49.272;11.070;2023-08-12T05:44:01;4.40;;;4.00;;
16029;SDS011;34770;49.272;11.070;2023-08-12T05:46:27;4.13;;;3.58;;
16029;SDS011;34770;49.272;11.070;2023-08-12T05:48:52;6.72;;;4.25;;
16029;SDS011;34770;49.272;11.070;2023-08-12T05:51:18;5.85;;;3.40;;
16029;SDS011;34770;49.272;11.070;2023-08-12T05:53:43;4.90;;;3.72;;
16029;SDS011;34770;49.272;11.070;2023-08-12T05:56:08;5.78;;;3.47;;
16029;SDS011;34770;49.272;11.070;2023-08-12T05:58:34;5.03;;;3.50;;
16029;SDS011;34770;49.272;11.070;2023-08-12T06:00:59;3.67;;;3.20;;
16029;SDS011;34770;49.272;11.070;2023-08-12T06:03:25;2.95;;;2.75;;
16029;SDS011;34770;49.272;11.070;2023-08-12T06:05:50;7.88;;;3.45;;
16029;SDS011;34770;49.272;11.070;2023-08-12T06:08:15;4.18;;;2.70;;
16029;SDS011;34770;49.272;11.070;2023-08-12T06:10:41;3.92;;;3.35;;
16029;SDS011;34770;49.272;11.070;2023-08-12T06:13:06;3.15;;;2.85;;
16029;SDS011;34770;49.272;11.070;2023-08-12T06:15:32;2.95;;;2.72;;
16029;SDS011;34770;49.272;11.070;2023-08-12T06:17:58;6.63;;;2.80;;
16029;SDS011;34770;49.272;11.070;2023-08-12T06:20:24;4.03;;;3.15;;
16029;SDS011;34770;49.272;11.070;2023-08-12T06:22:50;4.53;;;3.22;;
16029;SDS011;34770;49.272;11.070;2023-08-12T06:25:15;3.45;;;3.15;;
16029;SDS011;34770;49.272;11.070;2023-08-12T06:27:41;3.75;;;2.75;;
16029;SDS011;34770;49.272;11.070;2023-08-12T06:30:06;4.07;;;3.00;;
16029;SDS011;34770;49.272;11.070;2023-08-12T06:32:33;4.50;;;3.35;;
16029;SDS011;34770;49.272;11.070;2023-08-12T06:34:59;5.53;;;3.40;;
16029;SDS011;34770;49.272;11.070;2023-08-12T06:37:24;3.38;;;3.10;;
16029;SDS011;34770;49.272;11.070;2023-08-12T06:39:49;3.55;;;2.80;;
16029;SDS011;34770;49.272;11.070;2023-08-12T06:42:15;3.47;;;3.10;;
16029;SDS011;34770;49.272;11.070;2023-08-12T06:44:41;4.40;;;2.78;;
16029;SDS011;34770;49.272;11.070;2023-08-12T06:47:06;4.35;;;2.92;;
16029;SDS011;34770;49.272;11.070;2023-08-12T06:49:32;4.85;;;2.80;;
16029;SDS011;34770;49.272;11.070;2023-08-12T06:51:57;3.13;;;2.83;;
16029;SDS011;34770;49.272;11.070;2023-08-12T06:54:22;4.05;;;3.00;;
16029;SDS011;34770;49.272;11.070;2023-08-12T06:56:48;2.78;;;2.50;;
16029;SDS011;34770;49.272;11.070;2023-08-12T06:59:14;5.03;;;2.90;;
16029;SDS011;34770;49.272;11.070;2023-08-12T07:01:40;4.28;;;2.67;;
16029;SDS011;34770;49.272;11.070;2023-08-12T07:04:05;3.03;;;2.70;;
16029;SDS011;34770;49.272;11.070;2023-08-12T07:06:30;3.33;;;2.90;;
16029;SDS011;34770;49.272;11.070;2023-08-12T07:08:56;3.50;;;3.20;;
16029;SDS011;34770;49.272;11.070;2023-08-12T07:11:21;3.33;;;2.90;;
16029;SDS011;34770;49.272;11.070;2023-08-12T07:13:47;3.78;;;2.97;;
16029;SDS011;34770;49.272;11.070;2023-08-12T07:16:12;3.15;;;2.78;;
16029;SDS011;34770;49.272;11.070;2023-08-12T07:18:37;3.38;;;3.08;;
16029;SDS011;34770;49.272;11.070;2023-08-12T07:21:03;2.85;;;2.65;;
16029;SDS011;34770;49.272;11.070;2023-08-12T07:23:29;2.97;;;2.65;;
16029;SDS011;34770;49.272;11.070;2023-08-12T07:25:54;2.90;;;2.70;;
16029;SDS011;34770;49.272;11.070;2023-08-12T07:28:19;4.28;;;2.72;;
16029;SDS011;34770;49.272;11.070;2023-08-12T07:30:45;2.75;;;2.55;;
16029;SDS011;34770;49.272;11.070;2023-08-12T07:33:10;2.72;;;2.53;;
16029;SDS011;34770;49.272;11.070;2023-08-12T07:35:36;3.03;;;2.80;;
16029;SDS011;34770;49.272;11.070;2023-08-12T07:38:01;3.25;;;2.95;;
16029;SDS011;34770;49.272;11.070;2023-08-12T07:40:27;3.13;;;2.67;;
16029;SDS011;34770;49.272;11.070;2023-08-12T07:42:52;3.45;;;3.13;;
16029;SDS011;34770;49.272;11.070;2023-08-12T07:45:17;6.53;;;3.50;;
16029;SDS011;34770;49.272;11.070;2023-08-12T07:47:43;3.45;;;3.00;;
16029;SDS011;34770;49.272;11.070;2023-08-12T07:50:08;3.38;;;3.08;;
16029;SDS011;34770;49.272;11.070;2023-08-12T07:52:34;3.67;;;2.78;;
16029;SDS011;34770;49.272;11.070;2023-08-12T07:55:00;5.20;;;2.70;;
16029;SDS011;34770;49.272;11.070;2023-08-12T07:57:26;2.72;;;2.53;;
16029;SDS011;34770;49.272;11.070;2023-08-12T07:59:51;6.53;;;3.20;;
16029;SDS011;34770;49.272;11.070;2023-08-12T08:02:16;3.15;;;2.80;;
16029;SDS011;34770;49.272;11.070;2023-08-12T08:04:42;5.03;;;2.88;;
16029;SDS011;34770;49.272;11.070;2023-08-12T08:07:08;3.28;;;2.97;;
16029;SDS011;34770;49.272;11.070;2023-08-12T08:09:34;4.95;;;3.03;;
16029;SDS011;34770;49.272;11.070;2023-08-12T08:12:00;4.43;;;2.90;;
16029;SDS011;34770;49.272;11.070;2023-08-12T08:14:25;2.45;;;2.25;;
16029;SDS011;34770;49.272;11.070;2023-08-12T08:16:52;3.13;;;2.78;;
16029;SDS011;34770;49.272;11.070;2023-08-12T08:19:18;4.38;;;2.80;;
16029;SDS011;34770;49.272;11.070;2023-08-12T08:21:43;3.17;;;2.78;;
16029;SDS011;34770;49.272;11.070;2023-08-12T08:24:09;3.30;;;3.00;;
16029;SDS011;34770;49.272;11.070;2023-08-12T08:26:36;3.05;;;2.75;;
16029;SDS011;34770;49.272;11.070;2023-08-12T08:29:01;3.58;;;2.50;;
16029;SDS011;34770;49.272;11.070;2023-08-12T08:31:28;4.03;;;2.78;;
16029;SDS011;34770;49.272;11.070;2023-08-12T08:33:53;3.35;;;2.83;;
16029;SDS011;34770;49.272;11.070;2023-08-12T08:36:18;2.95;;;2.65;;
16029;SDS011;34770;49.272;11.070;2023-08-12T08:38:44;2.63;;;2.42;;
16029;SDS011;34770;49.272;11.070;2023-08-12T08:41:10;5.50;;;3.20;;
16029;SDS011;34770;49.272;11.070;2023-08-12T08:43:36;2.88;;;2.58;;
16029;SDS011;34770;49.272;11.070;2023-08-12T08:46:02;3.60;;;2.95;;
16029;SDS011;34770;49.272;11.070;2023-08-12T08:48:27;3.33;;;3.03;;
16029;SDS011;34770;49.272;11.070;2023-08-12T08:50:53;3.38;;;3.08;;
16029;SDS011;34770;49.272;11.070;2023-08-12T08:53:19;3.20;;;3.00;;
16029;SDS011;34770;49.272;11.070;2023-08-12T08:55:45;3.63;;;2.80;;
16029;SDS011;34770;49.272;11.070;2023-08-12T08:58:11;5.18;;;2.83;;
16029;SDS011;34770;49.272;11.070;2023-08-12T09:00:37;3.97;;;2.80;;
16029;SDS011;34770;49.272;11.070;2023-08-12T09:03:04;3.85;;;2.78;;
16029;SDS011;34770;49.272;11.070;2023-08-12T09:05:31;3.58;;;3.20;;
16029;SDS011;34770;49.272;11.070;2023-08-12T09:07:59;3.58;;;2.60;;
16029;SDS011;34770;49.272;11.070;2023-08-12T09:10:25;3.55;;;2.97;;
16029;SDS011;34770;49.272;11.070;2023-08-12T09:12:52;3.13;;;2.92;;
16029;SDS011;34770;49.272;11.070;2023-08-12T09:15:19;2.75;;;2.55;;
16029;SDS011;34770;49.272;11.070;2023-08-12T09:17:45;3.83;;;2.97;;
16029;SDS011;34770;49.272;11.070;2023-08-12T09:20:10;2.75;;;2.40;;
16029;SDS011;34770;49.272;11.070;2023-08-12T09:22:42;2.97;;;2.67;;
16029;SDS011;34770;49.272;11.070;2023-08-12T09:25:08;2.72;;;2.53;;
16029;SDS011;34770;49.272;11.070;2023-08-12T09:27:37;5.10;;;3.17;;
16029;SDS011;34770;49.272;11.070;2023-08-12T09:30:03;3.55;;;2.40;;
16029;SDS011;34770;49.272;11.070;2023-08-12T09:32:29;3.60;;;2.90;;
16029;SDS011;34770;49.272;11.070;2023-08-12T09:34:55;3.13;;;2.83;;
16029;SDS011;34770;49.272;11.070;2023-08-12T09:37:21;3.00;;;2.70;;
16029;SDS011;34770;49.272;11.070;2023-08-12T09:39:48;2.60;;;2.40;;
16029;SDS011;34770;49.272;11.070;2023-08-12T09:42:16;6.65;;;2.63;;
16029;SDS011;34770;49.272;11.070;2023-08-12T09:44:41;3.50;;;2.90;;
16029;SDS011;34770;49.272;11.070;2023-08-12T09:47:07;3.00;;;2.80;;
16029;SDS011;34770;49.272;11.070;2023-08-12T09:49:33;3.80;;;2.55;;
16029;SDS011;34770;49.272;11.070;2023-08-12T09:52:00;5.88;;;3.00;;
16029;SDS011;34770;49.272;11.070;2023-08-12T09:54:27;3.35;;;2.83;;
16029;SDS011;34770;49.272;11.070;2023-08-12T09:56:54;3.47;;;2.92;;
16029;SDS011;34770;49.272;11.070;2023-08-12T09:59:23;3.95;;;3.38;;
16029;SDS011;34770;49.272;11.070;2023-08-12T10:01:52;3.05;;;2.85;;
16029;SDS011;34770;49.272;11.070;2023-08-12T10:04:20;2.80;;;2.60;;
16029;SDS011;34770;49.272;11.070;2023-08-12T10:06:47;5.18;;;2.75;;
16029;SDS011;34770;49.272;11.070;2023-08-12T10:09:14;3.00;;;2.70;;
16029;SDS011;34770;49.272;11.070;2023-08-12T10:11:41;3.35;;;3.05;;
16029;SDS011;34770;49.272;11.070;2023-08-12T10:14:08;4.28;;;2.63;;
16029;SDS011;34770;49.272;11.070;2023-08-12T10:16:34;4.45;;;3.00;;
16029;SDS011;34770;49.272;11.070;2023-08-12T10:19:01;3.13;;;2.83;;
16029;SDS011;34770;49.272;11.070;2023-08-12T10:21:29;3.90;;;2.90;;
16029;SDS011;34770;49.272;11.070;2023-08-12T10:23:54;3.05;;;2.55;;
16029;SDS011;34770;49.272;11.070;2023-08-12T10:26:23;4.10;;;2.85;;
16029;SDS011;34770;49.272;11.070;2023-08-12T10:28:50;5.63;;;3.10;;
16029;SDS011;34770;49.272;11.070;2023-08-12T10:31:15;3.85;;;3.47;;
16029;SDS011;34770;49.272;11.070;2023-08-12T10:33:41;2.70;;;2.50;;
16029;SDS011;34770;49.272;11.070;2023-08-12T10:36:07;2.90;;;2.70;;
16029;SDS011;34770;49.272;11.070;2023-08-12T10:38:33;4.47;;;3.22;;
16029;SDS011;34770;49.272;11.070;2023-08-12T10:43:52;4.68;;;2.95;;
16029;SDS011;34770;49.272;11.070;2023-08-12T10:48:59;3.20;;;2.70;;
16029;SDS011;34770;49.272;11.070;2023-08-12T10:51:41;4.50;;;2.60;;
16029;SDS011;34770;49.272;11.070;2023-08-12T11:02:27;6.13;;;3.20;;
16029;SDS011;34770;49.272;11.070;2023-08-12T11:05:00;3.25;;;2.75;;
16029;SDS011;34770;49.272;11.070;2023-08-12T11:10:18;3.33;;;2.70;;
16029;SDS011;34770;49.272;11.070;2023-08-12T11:17:58;3.45;;;2.58;;
16029;SDS011;34770;49.272;11.070;2023-08-12T11:20:23;2.50;;;2.30;;
16029;SDS011;34770;49.272;11.070;2023-08-12T11:22:52;3.22;;;2.63;;
16029;SDS011;34770;49.272;11.070;2023-08-12T11:25:18;2.90;;;2.35;;
16029;SDS011;34770;49.272;11.070;2023-08-12T11:27:45;2.58;;;2.38;;
16029;SDS011;34770;49.272;11.070;2023-08-12T11:30:13;2.83;;;2.53;;
16029;SDS011;34770;49.272;11.070;2023-08-12T11:32:44;2.63;;;2.20;;
16029;SDS011;34770;49.272;11.070;2023-08-12T11:35:14;2.53;;;2.33;;
16029;SDS011;34770;49.272;11.070;2023-08-12T11:37:42;2.83;;;2.47;;
16029;SDS011;34770;49.272;11.070;2023-08-12T11:40:09;2.22;;;1.92;;
16029;SDS011;34770;49.272;11.070;2023-08-12T11:42:36;3.97;;;2.45;;
16029;SDS011;34770;49.272;11.070;2023-08-12T11:45:04;2.53;;;2.33;;
16029;SDS011;34770;49.272;11.070;2023-08-12T11:47:30;3.97;;;2.60;;
16029;SDS011;34770;49.272;11.070;2023-08-12T11:49:55;3.90;;;2.65;;
16029;SDS011;34770;49.272;11.070;2023-08-12T11:52:21;2.42;;;2.22;;
16029;SDS011;34770;49.272;11.070;2023-08-12T11:54:48;2.58;;;2.38;;
16029;SDS011;34770;49.272;11.070;2023-08-12T11:57:14;2.53;;;2.30;;
16029;SDS011;34770;49.272;11.070;2023-08-12T11:59:40;3.72;;;2.53;;
16029;SDS011;34770;49.272;11.070;2023-08-12T12:02:06;3.05;;;2.45;;
16029;SDS011;34770;49.272;11.070;2023-08-12T12:04:32;2.65;;;2.45;;
16029;SDS011;34770;49.272;11.070;2023-08-12T12:06:58;2.95;;;2.67;;
16029;SDS011;34770;49.272;11.070;2023-08-12T12:09:24;3.60;;;2.55;;
16029;SDS011;34770;49.272;11.070;2023-08-12T12:11:51;3.08;;;2.83;;
16029;SDS011;34770;49.272;11.070;2023-08-12T12:14:18;3.03;;;2.50;;
16029;SDS011;34770;49.272;11.070;2023-08-12T12:16:46;3.63;;;2.53;;
16029;SDS011;34770;49.272;11.070;2023-08-12T12:21:46;2.90;;;2.67;;
16029;SDS011;34770;49.272;11.070;2023-08-12T12:24:13;2.30;;;2.10;;
16029;SDS011;34770;49.272;11.070;2023-08-12T12:26:39;3.78;;;2.45;;
16029;SDS011;34770;49.272;11.070;2023-08-12T12:29:04;2.53;;;2.33;;
16029;SDS011;34770;49.272;11.070;2023-08-12T12:31:33;2.88;;;2.58;;
16029;SDS011;34770;49.272;11.070;2023-08-12T12:34:01;3.67;;;2.47;;
16029;SDS011;34770;49.272;11.070;2023-08-12T12:36:28;3.05;;;2.45;;
16029;SDS011;34770;49.272;11.070;2023-08-12T12:38:53;3.40;;;2.42;;
16029;SDS011;34770;49.272;11.070;2023-08-12T12:41:18;4.97;;;2.90;;
16029;SDS011;34770;49.272;11.070;2023-08-12T12:43:44;4.53;;;2.85;;
16029;SDS011;34770;49.272;11.070;2023-08-12T12:46:09;7.57;;;2.90;;
16029;SDS011;34770;49.272;11.070;2023-08-12T12:48:35;4.45;;;2.47;;
16029;SDS011;34770;49.272;11.070;2023-08-12T12:51:01;2.67;;;2.33;;
16029;SDS011;34770;49.272;11.070;2023-08-12T12:53:26;3.53;;;2.17;;
16029;SDS011;34770;49.272;11.070;2023-08-12T12:55:52;3.45;;;3.15;;
16029;SDS011;34770;49.272;11.070;2023-08-12T12:58:17;3.67;;;2.47;;
16029;SDS011;34770;49.272;11.070;2023-08-12T13:00:43;4.45;;;2.33;;
16029;SDS011;34770;49.272;11.070;2023-08-12T13:03:08;4.15;;;2.80;;
16029;SDS011;34770;49.272;11.070;2023-08-12T13:05:33;3.70;;;2.22;;
16029;SDS011;34770;49.272;11.070;2023-08-12T13:07:59;2.83;;;2.42;;
16029;SDS011;34770;49.272;11.070;2023-08-12T13:10:24;3.00;;;2.45;;
16029;SDS011;34770;49.272;11.070;2023-08-12T13:12:49;3.10;;;2.38;;
16029;SDS011;34770;49.272;11.070;2023-08-12T13:15:15;2.40;;;2.20;;
16029;SDS011;34770;49.272;11.070;2023-08-12T13:17:40;2.75;;;2.38;;
16029;SDS011;34770;49.272;11.070;2023-08-12T13:20:06;2.28;;;2.08;;
16029;SDS011;34770;49.272;11.070;2023-08-12T13:22:32;3.95;;;2.25;;
16029;SDS011;34770;49.272;11.070;2023-08-12T13:24:57;3.63;;;2.10;;
16029;SDS011;34770;49.272;11.070;2023-08-12T13:27:22;5.30;;;2.30;;
16029;SDS011;34770;49.272;11.070;2023-08-12T13:29:48;2.75;;;2.55;;
16029;SDS011;34770;49.272;11.070;2023-08-12T13:32:13;2.28;;;2.08;;
16029;SDS011;34770;49.272;11.070;2023-08-12T13:34:39;3.33;;;2.40;;
16029;SDS011;34770;49.272;11.070;2023-08-12T13:37:04;2.55;;;2.33;;
16029;SDS011;34770;49.272;11.070;2023-08-12T13:39:30;3.40;;;2.75;;
16029;SDS011;34770;49.272;11.070;2023-08-12T13:41:56;4.28;;;2.40;;
16029;SDS011;34770;49.272;11.070;2023-08-12T13:44:21;3.55;;;3.22;;
16029;SDS011;34770;49.272;11.070;2023-08-12T13:46:47;2.92;;;2.38;;
16029;SDS011;34770;49.272;11.070;2023-08-12T13:49:12;2.75;;;2.55;;
16029;SDS011;34770;49.272;11.070;2023-08-12T13:51:37;3.28;;;2.25;;
16029;SDS011;34770;49.272;11.070;2023-08-12T13:54:03;2.85;;;2.42;;
16029;SDS011;34770;49.272;11.070;2023-08-12T13:56:29;4.57;;;2.83;;
16029;SDS011;34770;49.272;11.070;2023-08-12T13:58:54;4.93;;;2.40;;
16029;SDS011;34770;49.272;11.070;2023-08-12T14:01:21;4.07;;;2.75;;
16029;SDS011;34770;49.272;11.070;2023-08-12T14:03:46;5.03;;;2.97;;
16029;SDS011;34770;49.272;11.070;2023-08-12T14:06:12;6.18;;;3.13;;
16029;SDS011;34770;49.272;11.070;2023-08-12T14:08:37;13.05;;;4.63;;
16029;SDS011;34770;49.272;11.070;2023-08-12T14:11:02;8.82;;;4.60;;
16029;SDS011;34770;49.272;11.070;2023-08-12T14:13:28;10.63;;;4.78;;
16029;SDS011;34770;49.272;11.070;2023-08-12T14:15:54;9.23;;;4.63;;
16029;SDS011;34770;49.272;11.070;2023-08-12T14:18:19;10.00;;;4.88;;
16029;SDS011;34770;49.272;11.070;2023-08-12T14:20:45;7.13;;;4.60;;
16029;SDS011;34770;49.272;11.070;2023-08-12T14:23:10;11.27;;;4.95;;
16029;SDS011;34770;49.272;11.070;2023-08-12T14:25:35;6.97;;;4.55;;
16029;SDS011;34770;49.272;11.070;2023-08-12T14:28:01;6.22;;;5.00;;
16029;SDS011;34770;49.272;11.070;2023-08-12T14:30:26;11.15;;;5.60;;
16029;SDS011;34770;49.272;11.070;2023-08-12T14:32:52;8.75;;;5.50;;
16029;SDS011;34770;49.272;11.070;2023-08-12T14:35:18;6.32;;;4.22;;
16029;SDS011;34770;49.272;11.070;2023-08-12T14:37:43;7.47;;;4.72;;
16029;SDS011;34770;49.272;11.070;2023-08-12T14:40:09;6.32;;;4.65;;
16029;SDS011;34770;49.272;11.070;2023-08-12T14:42:34;9.20;;;5.78;;
16029;SDS011;34770;49.272;11.070;2023-08-12T14:45:00;7.03;;;4.50;;
16029;SDS011;34770;49.272;11.070;2023-08-12T14:47:26;5.28;;;3.72;;
16029;SDS011;34770;49.272;11.070;2023-08-12T14:49:51;5.80;;;4.10;;
16029;SDS011;34770;49.272;11.070;2023-08-12T14:52:18;7.78;;;3.53;;